sensor_id;sensor_type;location;lat;lon;timestamp;temperature;humidity
49132;DHT22;35149;51.196;6.204;2022-11-22T00:00:57;11.10;69.30
49132;DHT22;35149;51.196;6.204;2022-11-22T00:03:23;11.10;69.30
49132;DHT22;35149;51.196;6.204;2022-11-22T00:05:52;11.10;69.40
49132;DHT22;35149;51.196;6.204;2022-11-22T00:08:21;11.10;69.40
49132;DHT22;35149;51.196;6.204;2022-11-22T00:10:48;11.10;69.40
49132;DHT22;35149;51.196;6.204;2022-11-22T00:13:17;11.10;69.40
49132;DHT22;35149;51.196;6.204;2022-11-22T00:15:56;11.10;69.30
49132;DHT22;35149;51.196;6.204;2022-11-22T00:18:23;11.10;69.40
49132;DHT22;35149;51.196;6.204;2022-11-22T00:20:52;11.10;69.40
49132;DHT22;35149;51.196;6.204;2022-11-22T00:23:19;11.10;69.40
49132;DHT22;35149;51.196;6.204;2022-11-22T00:25:45;11.10;69.50
49132;DHT22;35149;51.196;6.204;2022-11-22T00:28:14;11.20;69.60
49132;DHT22;35149;51.196;6.204;2022-11-22T00:30:43;11.20;69.60
49132;DHT22;35149;51.196;6.204;2022-11-22T00:33:12;11.20;69.60
49132;DHT22;35149;51.196;6.204;2022-11-22T00:35:44;11.20;69.60
49132;DHT22;35149;51.196;6.204;2022-11-22T00:38:10;11.20;69.60
49132;DHT22;35149;51.196;6.204;2022-11-22T00:40:41;11.20;69.60
49132;DHT22;35149;51.196;6.204;2022-11-22T00:43:10;11.20;69.60
49132;DHT22;35149;51.196;6.204;2022-11-22T00:45:39;11.20;69.60
49132;DHT22;35149;51.196;6.204;2022-11-22T00:48:09;11.20;69.50
49132;DHT22;35149;51.196;6.204;2022-11-22T00:50:36;11.30;69.50
49132;DHT22;35149;51.196;6.204;2022-11-22T00:53:04;11.30;69.50
49132;DHT22;35149;51.196;6.204;2022-11-22T00:55:31;11.20;69.30
49132;DHT22;35149;51.196;6.204;2022-11-22T00:57:58;11.20;69.20
49132;DHT22;35149;51.196;6.204;2022-11-22T01:00:24;11.20;69.10
49132;DHT22;35149;51.196;6.204;2022-11-22T01:02:54;11.20;69.10
49132;DHT22;35149;51.196;6.204;2022-11-22T01:05:40;11.10;69.00
49132;DHT22;35149;51.196;6.204;2022-11-22T01:08:07;11.10;69.00
49132;DHT22;35149;51.196;6.204;2022-11-22T01:10:36;11.10;69.00
49132;DHT22;35149;51.196;6.204;2022-11-22T01:13:03;11.00;69.00
49132;DHT22;35149;51.196;6.204;2022-11-22T01:15:30;11.00;69.00
49132;DHT22;35149;51.196;6.204;2022-11-22T01:17:57;11.00;69.00
49132;DHT22;35149;51.196;6.204;2022-11-22T01:20:31;10.90;69.00
49132;DHT22;35149;51.196;6.204;2022-11-22T01:22:58;10.90;69.00
49132;DHT22;35149;51.196;6.204;2022-11-22T01:25:29;10.80;69.00
49132;DHT22;35149;51.196;6.204;2022-11-22T01:27:56;10.80;69.00
49132;DHT22;35149;51.196;6.204;2022-11-22T01:30:26;10.80;69.00
49132;DHT22;35149;51.196;6.204;2022-11-22T01:32:56;10.70;69.00
49132;DHT22;35149;51.196;6.204;2022-11-22T01:35:23;10.70;69.10
49132;DHT22;35149;51.196;6.204;2022-11-22T01:37:52;10.70;69.10
49132;DHT22;35149;51.196;6.204;2022-11-22T01:40:18;10.60;69.70
49132;DHT22;35149;51.196;6.204;2022-11-22T01:42:51;10.60;69.10
49132;DHT22;35149;51.196;6.204;2022-11-22T01:48:01;10.50;69.20
49132;DHT22;35149;51.196;6.204;2022-11-22T01:50:30;10.50;69.20
49132;DHT22;35149;51.196;6.204;2022-11-22T01:53:03;10.40;69.20
49132;DHT22;35149;51.196;6.204;2022-11-22T01:55:31;10.40;69.30
49132;DHT22;35149;51.196;6.204;2022-11-22T01:58:00;10.40;69.30
49132;DHT22;35149;51.196;6.204;2022-11-22T02:00:32;10.40;69.20
49132;DHT22;35149;51.196;6.204;2022-11-22T02:03:00;10.30;69.20
49132;DHT22;35149;51.196;6.204;2022-11-22T02:05:28;10.30;69.20
49132;DHT22;35149;51.196;6.204;2022-11-22T02:10:27;10.20;69.20
49132;DHT22;35149;51.196;6.204;2022-11-22T02:12:57;10.20;69.40
49132;DHT22;35149;51.196;6.204;2022-11-22T02:15:27;10.20;69.40
49132;DHT22;35149;51.196;6.204;2022-11-22T02:17:57;10.10;69.50
49132;DHT22;35149;51.196;6.204;2022-11-22T02:20:23;10.10;69.50
49132;DHT22;35149;51.196;6.204;2022-11-22T02:28:11;10.00;69.60
49132;DHT22;35149;51.196;6.204;2022-11-22T02:30:40;10.10;69.70
49132;DHT22;35149;51.196;6.204;2022-11-22T02:33:10;10.00;69.70
49132;DHT22;35149;51.196;6.204;2022-11-22T02:35:36;10.10;69.80
49132;DHT22;35149;51.196;6.204;2022-11-22T02:38:07;10.00;69.70
49132;DHT22;35149;51.196;6.204;2022-11-22T02:40:37;10.00;69.70
49132;DHT22;35149;51.196;6.204;2022-11-22T02:43:06;10.00;69.80
49132;DHT22;35149;51.196;6.204;2022-11-22T02:45:36;10.00;69.90
49132;DHT22;35149;51.196;6.204;2022-11-22T02:48:07;10.00;69.80
49132;DHT22;35149;51.196;6.204;2022-11-22T02:50:36;10.00;69.90
49132;DHT22;35149;51.196;6.204;2022-11-22T02:53:06;10.00;69.90
49132;DHT22;35149;51.196;6.204;2022-11-22T02:55:38;10.00;69.90
49132;DHT22;35149;51.196;6.204;2022-11-22T02:58:07;10.00;69.90
49132;DHT22;35149;51.196;6.204;2022-11-22T03:00:41;9.90;69.70
49132;DHT22;35149;51.196;6.204;2022-11-22T03:03:08;9.90;69.70
49132;DHT22;35149;51.196;6.204;2022-11-22T03:05:42;9.90;69.70
49132;DHT22;35149;51.196;6.204;2022-11-22T03:08:09;9.90;69.50
49132;DHT22;35149;51.196;6.204;2022-11-22T03:10:39;9.90;69.60
49132;DHT22;35149;51.196;6.204;2022-11-22T03:13:08;9.90;69.60
49132;DHT22;35149;51.196;6.204;2022-11-22T03:15:34;9.90;69.70
49132;DHT22;35149;51.196;6.204;2022-11-22T03:18:02;9.80;69.60
49132;DHT22;35149;51.196;6.204;2022-11-22T03:20:29;9.80;69.60
49132;DHT22;35149;51.196;6.204;2022-11-22T03:22:58;9.80;69.60
49132;DHT22;35149;51.196;6.204;2022-11-22T03:25:25;9.80;69.70
49132;DHT22;35149;51.196;6.204;2022-11-22T03:27:51;9.80;69.70
49132;DHT22;35149;51.196;6.204;2022-11-22T03:30:19;9.80;69.70
49132;DHT22;35149;51.196;6.204;2022-11-22T03:32:50;9.70;69.70
49132;DHT22;35149;51.196;6.204;2022-11-22T03:35:17;9.70;69.60
49132;DHT22;35149;51.196;6.204;2022-11-22T03:37:45;9.70;69.60
49132;DHT22;35149;51.196;6.204;2022-11-22T03:40:11;9.70;69.60
49132;DHT22;35149;51.196;6.204;2022-11-22T03:42:38;9.70;69.70
49132;DHT22;35149;51.196;6.204;2022-11-22T03:45:05;9.70;69.70
49132;DHT22;35149;51.196;6.204;2022-11-22T03:47:42;9.70;69.70
49132;DHT22;35149;51.196;6.204;2022-11-22T03:50:08;9.60;69.60
49132;DHT22;35149;51.196;6.204;2022-11-22T03:52:35;9.60;69.70
49132;DHT22;35149;51.196;6.204;2022-11-22T03:55:04;9.60;69.70
49132;DHT22;35149;51.196;6.204;2022-11-22T03:57:33;9.60;69.70
49132;DHT22;35149;51.196;6.204;2022-11-22T04:00:00;9.60;69.70
49132;DHT22;35149;51.196;6.204;2022-11-22T04:02:39;9.60;69.70
49132;DHT22;35149;51.196;6.204;2022-11-22T04:05:06;9.50;69.60
49132;DHT22;35149;51.196;6.204;2022-11-22T04:07:34;9.50;69.60
49132;DHT22;35149;51.196;6.204;2022-11-22T04:10:04;9.50;69.60
49132;DHT22;35149;51.196;6.204;2022-11-22T04:12:33;9.50;69.60
49132;DHT22;35149;51.196;6.204;2022-11-22T04:15:00;9.50;69.60
49132;DHT22;35149;51.196;6.204;2022-11-22T04:17:38;9.50;69.60
49132;DHT22;35149;51.196;6.204;2022-11-22T04:20:27;9.50;69.50
49132;DHT22;35149;51.196;6.204;2022-11-22T04:23:14;9.40;69.50
49132;DHT22;35149;51.196;6.204;2022-11-22T04:25:46;9.40;69.50
49132;DHT22;35149;51.196;6.204;2022-11-22T04:28:14;9.40;69.50
49132;DHT22;35149;51.196;6.204;2022-11-22T04:30:44;9.30;69.50
49132;DHT22;35149;51.196;6.204;2022-11-22T04:33:29;9.30;69.50
49132;DHT22;35149;51.196;6.204;2022-11-22T04:35:58;9.30;69.60
49132;DHT22;35149;51.196;6.204;2022-11-22T04:38:27;9.30;69.60
49132;DHT22;35149;51.196;6.204;2022-11-22T04:40:53;9.30;69.60
49132;DHT22;35149;51.196;6.204;2022-11-22T04:43:23;9.30;69.60
49132;DHT22;35149;51.196;6.204;2022-11-22T04:46:09;9.30;69.60
49132;DHT22;35149;51.196;6.204;2022-11-22T04:48:38;9.20;69.60
49132;DHT22;35149;51.196;6.204;2022-11-22T04:51:14;9.30;69.70
49132;DHT22;35149;51.196;6.204;2022-11-22T04:53:59;9.20;69.60
49132;DHT22;35149;51.196;6.204;2022-11-22T04:56:28;9.20;69.60
49132;DHT22;35149;51.196;6.204;2022-11-22T04:58:56;9.20;69.60
49132;DHT22;35149;51.196;6.204;2022-11-22T05:01:22;9.20;69.60
49132;DHT22;35149;51.196;6.204;2022-11-22T05:03:59;9.20;69.60
49132;DHT22;35149;51.196;6.204;2022-11-22T05:06:27;9.10;69.50
49132;DHT22;35149;51.196;6.204;2022-11-22T05:08:53;9.10;69.50
49132;DHT22;35149;51.196;6.204;2022-11-22T05:11:21;9.10;69.50
49132;DHT22;35149;51.196;6.204;2022-11-22T05:13:50;9.10;69.50
49132;DHT22;35149;51.196;6.204;2022-11-22T05:16:19;9.10;69.50
49132;DHT22;35149;51.196;6.204;2022-11-22T05:18:50;9.10;69.50
49132;DHT22;35149;51.196;6.204;2022-11-22T05:21:28;9.10;69.50
49132;DHT22;35149;51.196;6.204;2022-11-22T05:23:55;9.00;69.40
49132;DHT22;35149;51.196;6.204;2022-11-22T05:28:52;9.00;69.50
49132;DHT22;35149;51.196;6.204;2022-11-22T05:31:20;9.00;69.50
49132;DHT22;35149;51.196;6.204;2022-11-22T05:33:51;9.00;69.50
49132;DHT22;35149;51.196;6.204;2022-11-22T05:36:21;8.90;69.50
49132;DHT22;35149;51.196;6.204;2022-11-22T05:38:51;8.90;69.50
49132;DHT22;35149;51.196;6.204;2022-11-22T05:41:20;8.90;69.50
49132;DHT22;35149;51.196;6.204;2022-11-22T05:43:48;8.90;69.60
49132;DHT22;35149;51.196;6.204;2022-11-22T05:46:23;8.90;69.60
49132;DHT22;35149;51.196;6.204;2022-11-22T05:48:52;8.90;69.60
49132;DHT22;35149;51.196;6.204;2022-11-22T05:51:23;8.90;69.50
49132;DHT22;35149;51.196;6.204;2022-11-22T05:53:59;8.90;69.60
49132;DHT22;35149;51.196;6.204;2022-11-22T05:56:25;8.80;69.50
49132;DHT22;35149;51.196;6.204;2022-11-22T05:58:52;8.80;69.50
49132;DHT22;35149;51.196;6.204;2022-11-22T06:01:22;8.80;69.50
49132;DHT22;35149;51.196;6.204;2022-11-22T06:03:49;8.80;69.50
49132;DHT22;35149;51.196;6.204;2022-11-22T06:06:16;8.80;69.40
49132;DHT22;35149;51.196;6.204;2022-11-22T06:08:43;8.70;69.40
49132;DHT22;35149;51.196;6.204;2022-11-22T06:11:15;8.70;69.40
49132;DHT22;35149;51.196;6.204;2022-11-22T06:13:44;8.70;69.40
49132;DHT22;35149;51.196;6.204;2022-11-22T06:16:11;8.70;69.40
49132;DHT22;35149;51.196;6.204;2022-11-22T06:18:43;8.70;69.40
49132;DHT22;35149;51.196;6.204;2022-11-22T06:21:10;8.70;70.10
49132;DHT22;35149;51.196;6.204;2022-11-22T06:23:39;8.60;69.40
49132;DHT22;35149;51.196;6.204;2022-11-22T06:26:09;8.60;69.40
49132;DHT22;35149;51.196;6.204;2022-11-22T06:28:41;8.60;69.40
49132;DHT22;35149;51.196;6.204;2022-11-22T06:31:12;8.60;69.40
49132;DHT22;35149;51.196;6.204;2022-11-22T06:33:39;8.60;69.40
49132;DHT22;35149;51.196;6.204;2022-11-22T06:36:10;8.60;69.40
49132;DHT22;35149;51.196;6.204;2022-11-22T06:38:41;8.60;69.40
49132;DHT22;35149;51.196;6.204;2022-11-22T06:41:15;8.50;69.40
49132;DHT22;35149;51.196;6.204;2022-11-22T06:43:45;8.50;69.40
49132;DHT22;35149;51.196;6.204;2022-11-22T06:46:15;8.50;69.40
49132;DHT22;35149;51.196;6.204;2022-11-22T06:48:52;8.50;69.40
49132;DHT22;35149;51.196;6.204;2022-11-22T06:51:20;8.50;69.40
49132;DHT22;35149;51.196;6.204;2022-11-22T06:53:47;8.50;69.40
49132;DHT22;35149;51.196;6.204;2022-11-22T06:56:22;8.50;69.40
49132;DHT22;35149;51.196;6.204;2022-11-22T06:58:53;8.50;69.40
49132;DHT22;35149;51.196;6.204;2022-11-22T07:01:20;8.50;69.40
49132;DHT22;35149;51.196;6.204;2022-11-22T07:03:48;8.50;69.50
49132;DHT22;35149;51.196;6.204;2022-11-22T07:06:15;8.40;69.40
49132;DHT22;35149;51.196;6.204;2022-11-22T07:08:42;8.40;69.40
49132;DHT22;35149;51.196;6.204;2022-11-22T07:11:12;8.40;69.40
49132;DHT22;35149;51.196;6.204;2022-11-22T07:13:42;8.40;69.40
49132;DHT22;35149;51.196;6.204;2022-11-22T07:16:09;8.40;69.40
49132;DHT22;35149;51.196;6.204;2022-11-22T07:18:37;8.40;69.40
49132;DHT22;35149;51.196;6.204;2022-11-22T07:21:05;8.40;69.40
49132;DHT22;35149;51.196;6.204;2022-11-22T07:23:39;8.40;69.40
49132;DHT22;35149;51.196;6.204;2022-11-22T07:26:06;8.40;69.50
49132;DHT22;35149;51.196;6.204;2022-11-22T07:28:32;8.40;69.50
49132;DHT22;35149;51.196;6.204;2022-11-22T07:31:02;8.40;69.50
49132;DHT22;35149;51.196;6.204;2022-11-22T07:33:29;8.40;69.60
49132;DHT22;35149;51.196;6.204;2022-11-22T07:36:03;8.40;69.60
49132;DHT22;35149;51.196;6.204;2022-11-22T07:38:32;8.40;69.70
49132;DHT22;35149;51.196;6.204;2022-11-22T07:41:06;8.40;69.70
49132;DHT22;35149;51.196;6.204;2022-11-22T07:43:36;8.40;69.70
49132;DHT22;35149;51.196;6.204;2022-11-22T07:46:04;8.40;69.70
49132;DHT22;35149;51.196;6.204;2022-11-22T07:48:31;8.50;69.80
49132;DHT22;35149;51.196;6.204;2022-11-22T07:51:05;8.50;69.80
49132;DHT22;35149;51.196;6.204;2022-11-22T07:53:41;8.50;69.80
49132;DHT22;35149;51.196;6.204;2022-11-22T07:56:08;8.50;69.90
49132;DHT22;35149;51.196;6.204;2022-11-22T07:58:36;8.50;69.80
49132;DHT22;35149;51.196;6.204;2022-11-22T08:01:06;8.60;70.00
49132;DHT22;35149;51.196;6.204;2022-11-22T08:03:34;8.60;70.00
49132;DHT22;35149;51.196;6.204;2022-11-22T08:06:03;8.60;70.20
49132;DHT22;35149;51.196;6.204;2022-11-22T08:08:32;8.70;70.30
49132;DHT22;35149;51.196;6.204;2022-11-22T08:10:59;8.80;70.40
49132;DHT22;35149;51.196;6.204;2022-11-22T08:13:27;8.80;70.40
49132;DHT22;35149;51.196;6.204;2022-11-22T08:15:59;8.90;70.40
49132;DHT22;35149;51.196;6.204;2022-11-22T08:18:31;9.00;70.30
49132;DHT22;35149;51.196;6.204;2022-11-22T08:21:08;9.00;70.00
49132;DHT22;35149;51.196;6.204;2022-11-22T08:23:35;9.10;69.90
49132;DHT22;35149;51.196;6.204;2022-11-22T08:26:02;9.10;69.80
49132;DHT22;35149;51.196;6.204;2022-11-22T08:28:34;9.20;69.70
49132;DHT22;35149;51.196;6.204;2022-11-22T08:31:04;9.20;69.70
49132;DHT22;35149;51.196;6.204;2022-11-22T08:33:34;9.20;69.70
49132;DHT22;35149;51.196;6.204;2022-11-22T08:36:00;9.40;69.90
49132;DHT22;35149;51.196;6.204;2022-11-22T08:38:29;9.30;69.80
49132;DHT22;35149;51.196;6.204;2022-11-22T08:40:56;9.40;69.90
49132;DHT22;35149;51.196;6.204;2022-11-22T08:43:22;9.40;69.80
49132;DHT22;35149;51.196;6.204;2022-11-22T08:45:53;9.50;69.80
49132;DHT22;35149;51.196;6.204;2022-11-22T08:48:21;9.60;69.90
49132;DHT22;35149;51.196;6.204;2022-11-22T08:50:49;9.60;69.90
49132;DHT22;35149;51.196;6.204;2022-11-22T08:53:21;9.70;69.90
49132;DHT22;35149;51.196;6.204;2022-11-22T08:55:48;9.80;69.80
49132;DHT22;35149;51.196;6.204;2022-11-22T08:58:14;9.80;69.70
49132;DHT22;35149;51.196;6.204;2022-11-22T09:00:44;9.90;69.70
49132;DHT22;35149;51.196;6.204;2022-11-22T09:03:11;10.00;69.70
49132;DHT22;35149;51.196;6.204;2022-11-22T09:05:37;10.00;69.60
49132;DHT22;35149;51.196;6.204;2022-11-22T09:08:26;10.10;69.60
49132;DHT22;35149;51.196;6.204;2022-11-22T09:11:03;10.20;69.60
49132;DHT22;35149;51.196;6.204;2022-11-22T09:13:29;10.20;69.50
49132;DHT22;35149;51.196;6.204;2022-11-22T09:16:07;10.30;69.30
49132;DHT22;35149;51.196;6.204;2022-11-22T09:18:34;10.40;69.20
49132;DHT22;35149;51.196;6.204;2022-11-22T09:21:05;10.50;69.30
49132;DHT22;35149;51.196;6.204;2022-11-22T09:23:32;10.50;68.90
49132;DHT22;35149;51.196;6.204;2022-11-22T09:26:06;10.60;68.50
49132;DHT22;35149;51.196;6.204;2022-11-22T09:28:35;10.60;68.40
49132;DHT22;35149;51.196;6.204;2022-11-22T09:31:08;10.60;68.10
49132;DHT22;35149;51.196;6.204;2022-11-22T09:33:38;10.60;68.00
49132;DHT22;35149;51.196;6.204;2022-11-22T09:36:10;10.50;67.90
49132;DHT22;35149;51.196;6.204;2022-11-22T09:38:37;10.50;67.90
49132;DHT22;35149;51.196;6.204;2022-11-22T09:46:35;10.50;68.10
49132;DHT22;35149;51.196;6.204;2022-11-22T09:51:33;10.60;68.40
49132;DHT22;35149;51.196;6.204;2022-11-22T09:54:10;10.60;68.30
49132;DHT22;35149;51.196;6.204;2022-11-22T09:56:41;10.70;68.30
49132;DHT22;35149;51.196;6.204;2022-11-22T09:59:12;10.70;68.10
49132;DHT22;35149;51.196;6.204;2022-11-22T10:01:44;10.70;68.10
49132;DHT22;35149;51.196;6.204;2022-11-22T10:04:23;10.70;68.10
49132;DHT22;35149;51.196;6.204;2022-11-22T10:06:53;10.80;68.20
49132;DHT22;35149;51.196;6.204;2022-11-22T10:11:58;10.90;68.40
49132;DHT22;35149;51.196;6.204;2022-11-22T10:17:35;11.00;68.50
49132;DHT22;35149;51.196;6.204;2022-11-22T10:22:40;11.10;68.60
49132;DHT22;35149;51.196;6.204;2022-11-22T10:25:13;11.20;68.50
49132;DHT22;35149;51.196;6.204;2022-11-22T10:27:42;11.30;68.50
49132;DHT22;35149;51.196;6.204;2022-11-22T10:30:15;11.40;68.50
49132;DHT22;35149;51.196;6.204;2022-11-22T10:35:57;11.50;68.30
49132;DHT22;35149;51.196;6.204;2022-11-22T10:43:52;11.70;67.90
49132;DHT22;35149;51.196;6.204;2022-11-22T10:49:36;11.70;67.70
49132;DHT22;35149;51.196;6.204;2022-11-22T10:52:28;11.80;67.60
49132;DHT22;35149;51.196;6.204;2022-11-22T10:57:53;11.90;67.20
49132;DHT22;35149;51.196;6.204;2022-11-22T11:00:25;11.90;67.30
49132;DHT22;35149;51.196;6.204;2022-11-22T11:03:03;12.00;67.40
49132;DHT22;35149;51.196;6.204;2022-11-22T11:05:42;12.10;67.60
49132;DHT22;35149;51.196;6.204;2022-11-22T11:08:41;12.10;67.30
49132;DHT22;35149;51.196;6.204;2022-11-22T11:11:33;12.10;67.10
49132;DHT22;35149;51.196;6.204;2022-11-22T11:14:01;12.20;67.10
49132;DHT22;35149;51.196;6.204;2022-11-22T11:16:33;12.20;66.90
49132;DHT22;35149;51.196;6.204;2022-11-22T11:21:38;12.30;66.80
49132;DHT22;35149;51.196;6.204;2022-11-22T11:24:14;12.30;66.70
49132;DHT22;35149;51.196;6.204;2022-11-22T11:26:43;12.30;66.60
49132;DHT22;35149;51.196;6.204;2022-11-22T11:29:24;12.30;66.30
49132;DHT22;35149;51.196;6.204;2022-11-22T11:32:05;12.40;66.60
49132;DHT22;35149;51.196;6.204;2022-11-22T11:34:34;12.40;66.50
49132;DHT22;35149;51.196;6.204;2022-11-22T11:37:03;12.40;66.70
49132;DHT22;35149;51.196;6.204;2022-11-22T11:39:33;12.40;66.60
49132;DHT22;35149;51.196;6.204;2022-11-22T11:42:02;12.40;66.40
49132;DHT22;35149;51.196;6.204;2022-11-22T11:44:48;12.40;66.30
49132;DHT22;35149;51.196;6.204;2022-11-22T11:47:19;12.40;66.10
49132;DHT22;35149;51.196;6.204;2022-11-22T11:49:56;12.40;66.40
49132;DHT22;35149;51.196;6.204;2022-11-22T11:52:22;12.40;66.20
49132;DHT22;35149;51.196;6.204;2022-11-22T11:54:59;12.50;66.10
49132;DHT22;35149;51.196;6.204;2022-11-22T11:57:32;12.40;66.10
49132;DHT22;35149;51.196;6.204;2022-11-22T12:00:03;12.50;66.20
49132;DHT22;35149;51.196;6.204;2022-11-22T12:02:39;12.50;66.00
49132;DHT22;35149;51.196;6.204;2022-11-22T12:05:25;12.50;66.10
49132;DHT22;35149;51.196;6.204;2022-11-22T12:07:52;12.50;65.80
49132;DHT22;35149;51.196;6.204;2022-11-22T12:10:31;12.50;65.90
49132;DHT22;35149;51.196;6.204;2022-11-22T12:18:26;12.50;65.60
49132;DHT22;35149;51.196;6.204;2022-11-22T12:23:36;12.50;65.60
49132;DHT22;35149;51.196;6.204;2022-11-22T12:26:04;12.50;65.80
49132;DHT22;35149;51.196;6.204;2022-11-22T12:28:32;12.50;65.80
49132;DHT22;35149;51.196;6.204;2022-11-22T12:31:08;12.50;65.60
49132;DHT22;35149;51.196;6.204;2022-11-22T12:33:49;12.50;65.70
49132;DHT22;35149;51.196;6.204;2022-11-22T12:36:19;12.50;65.70
49132;DHT22;35149;51.196;6.204;2022-11-22T12:38:46;12.50;65.60
49132;DHT22;35149;51.196;6.204;2022-11-22T12:41:15;12.50;65.70
49132;DHT22;35149;51.196;6.204;2022-11-22T12:43:53;12.50;65.70
49132;DHT22;35149;51.196;6.204;2022-11-22T12:51:45;12.50;65.80
49132;DHT22;35149;51.196;6.204;2022-11-22T12:54:18;12.50;65.50
49132;DHT22;35149;51.196;6.204;2022-11-22T12:56:50;12.50;65.50
49132;DHT22;35149;51.196;6.204;2022-11-22T12:59:26;12.50;65.60
49132;DHT22;35149;51.196;6.204;2022-11-22T13:04:40;12.50;65.60
49132;DHT22;35149;51.196;6.204;2022-11-22T13:07:12;12.50;65.60
49132;DHT22;35149;51.196;6.204;2022-11-22T13:09:42;12.50;65.60
49132;DHT22;35149;51.196;6.204;2022-11-22T13:12:24;12.50;65.50
49132;DHT22;35149;51.196;6.204;2022-11-22T13:14:56;12.60;65.70
49132;DHT22;35149;51.196;6.204;2022-11-22T13:17:24;12.50;65.50
49132;DHT22;35149;51.196;6.204;2022-11-22T13:22:58;12.60;65.60
49132;DHT22;35149;51.196;6.204;2022-11-22T13:28:13;12.60;65.40
49132;DHT22;35149;51.196;6.204;2022-11-22T13:30:55;12.50;65.20
49132;DHT22;35149;51.196;6.204;2022-11-22T13:33:30;12.60;65.30
49132;DHT22;35149;51.196;6.204;2022-11-22T13:39:32;12.60;65.40
49132;DHT22;35149;51.196;6.204;2022-11-22T13:44:52;12.50;65.40
49132;DHT22;35149;51.196;6.204;2022-11-22T13:47:42;12.50;65.30
49132;DHT22;35149;51.196;6.204;2022-11-22T13:52:56;12.50;65.10
49132;DHT22;35149;51.196;6.204;2022-11-22T13:55:28;12.40;65.20
49132;DHT22;35149;51.196;6.204;2022-11-22T14:01:01;12.40;65.00
49132;DHT22;35149;51.196;6.204;2022-11-22T14:06:00;12.40;65.30
49132;DHT22;35149;51.196;6.204;2022-11-22T14:08:44;12.40;65.30
49132;DHT22;35149;51.196;6.204;2022-11-22T14:16:20;12.40;65.40
49132;DHT22;35149;51.196;6.204;2022-11-22T14:26:28;12.40;66.00
49132;DHT22;35149;51.196;6.204;2022-11-22T14:31:27;12.50;65.50
49132;DHT22;35149;51.196;6.204;2022-11-22T14:34:17;12.50;65.60
49132;DHT22;35149;51.196;6.204;2022-11-22T14:47:38;12.50;65.40
49132;DHT22;35149;51.196;6.204;2022-11-22T14:52:51;12.50;65.50
49132;DHT22;35149;51.196;6.204;2022-11-22T14:55:26;12.40;65.50
49132;DHT22;35149;51.196;6.204;2022-11-22T14:57:56;12.40;65.50
49132;DHT22;35149;51.196;6.204;2022-11-22T15:00:24;12.40;65.60
49132;DHT22;35149;51.196;6.204;2022-11-22T15:05:55;12.40;65.60
49132;DHT22;35149;51.196;6.204;2022-11-22T15:11:39;12.40;65.70
49132;DHT22;35149;51.196;6.204;2022-11-22T15:16:41;12.40;65.70
49132;DHT22;35149;51.196;6.204;2022-11-22T15:19:32;12.40;65.80
49132;DHT22;35149;51.196;6.204;2022-11-22T15:22:28;12.40;65.80
49132;DHT22;35149;51.196;6.204;2022-11-22T15:25:15;12.30;65.90
49132;DHT22;35149;51.196;6.204;2022-11-22T15:28:03;12.20;65.90
49132;DHT22;35149;51.196;6.204;2022-11-22T15:30:50;12.20;66.00
49132;DHT22;35149;51.196;6.204;2022-11-22T15:33:37;12.10;66.00
49132;DHT22;35149;51.196;6.204;2022-11-22T15:39:21;12.00;66.30
49132;DHT22;35149;51.196;6.204;2022-11-22T15:42:13;11.90;66.30
49132;DHT22;35149;51.196;6.204;2022-11-22T15:45:01;11.90;66.50
49132;DHT22;35149;51.196;6.204;2022-11-22T15:47:48;11.90;66.70
49132;DHT22;35149;51.196;6.204;2022-11-22T15:50:58;11.90;66.80
49132;DHT22;35149;51.196;6.204;2022-11-22T15:56:58;11.90;67.00
49132;DHT22;35149;51.196;6.204;2022-11-22T15:59:37;11.80;67.00
49132;DHT22;35149;51.196;6.204;2022-11-22T16:02:17;11.80;67.20
49132;DHT22;35149;51.196;6.204;2022-11-22T16:04:48;11.80;67.20
49132;DHT22;35149;51.196;6.204;2022-11-22T16:07:37;11.80;67.30
49132;DHT22;35149;51.196;6.204;2022-11-22T16:10:05;11.70;67.30
49132;DHT22;35149;51.196;6.204;2022-11-22T16:12:37;11.80;67.40
49132;DHT22;35149;51.196;6.204;2022-11-22T16:18:00;11.70;67.50
49132;DHT22;35149;51.196;6.204;2022-11-22T16:20:33;11.70;67.60
49132;DHT22;35149;51.196;6.204;2022-11-22T16:25:40;11.70;67.70
49132;DHT22;35149;51.196;6.204;2022-11-22T16:28:24;11.70;67.80
49132;DHT22;35149;51.196;6.204;2022-11-22T16:30:52;11.70;67.90
49132;DHT22;35149;51.196;6.204;2022-11-22T16:33:19;11.70;68.40
49132;DHT22;35149;51.196;6.204;2022-11-22T16:35:51;11.70;67.90
49132;DHT22;35149;51.196;6.204;2022-11-22T16:38:19;11.70;67.90
49132;DHT22;35149;51.196;6.204;2022-11-22T16:40:46;11.70;67.90
49132;DHT22;35149;51.196;6.204;2022-11-22T16:43:16;11.70;68.00
49132;DHT22;35149;51.196;6.204;2022-11-22T16:45:43;11.60;68.00
49132;DHT22;35149;51.196;6.204;2022-11-22T16:48:13;11.70;68.10
49132;DHT22;35149;51.196;6.204;2022-11-22T16:50:58;11.60;68.10
49132;DHT22;35149;51.196;6.204;2022-11-22T16:53:41;11.70;68.20
49132;DHT22;35149;51.196;6.204;2022-11-22T16:58:44;11.70;68.20
49132;DHT22;35149;51.196;6.204;2022-11-22T17:01:14;11.70;68.20
49132;DHT22;35149;51.196;6.204;2022-11-22T17:03:42;11.70;68.30
49132;DHT22;35149;51.196;6.204;2022-11-22T17:06:12;11.70;68.30
49132;DHT22;35149;51.196;6.204;2022-11-22T17:08:48;11.70;68.40
49132;DHT22;35149;51.196;6.204;2022-11-22T17:11:19;11.70;68.40
49132;DHT22;35149;51.196;6.204;2022-11-22T17:13:46;11.70;68.40
49132;DHT22;35149;51.196;6.204;2022-11-22T17:16:15;11.70;68.30
49132;DHT22;35149;51.196;6.204;2022-11-22T17:18:49;11.70;68.30
49132;DHT22;35149;51.196;6.204;2022-11-22T17:21:25;11.70;68.30
49132;DHT22;35149;51.196;6.204;2022-11-22T17:24:03;11.80;68.30
49132;DHT22;35149;51.196;6.204;2022-11-22T17:26:41;11.80;68.30
49132;DHT22;35149;51.196;6.204;2022-11-22T17:29:10;11.80;68.40
49132;DHT22;35149;51.196;6.204;2022-11-22T17:32:02;11.80;68.40
49132;DHT22;35149;51.196;6.204;2022-11-22T17:34:30;11.80;68.40
49132;DHT22;35149;51.196;6.204;2022-11-22T17:37:00;11.80;68.40
49132;DHT22;35149;51.196;6.204;2022-11-22T17:39:28;11.80;68.40
49132;DHT22;35149;51.196;6.204;2022-11-22T17:41:54;11.80;68.40
49132;DHT22;35149;51.196;6.204;2022-11-22T17:44:21;11.80;68.50
49132;DHT22;35149;51.196;6.204;2022-11-22T17:46:49;11.80;68.50
49132;DHT22;35149;51.196;6.204;2022-11-22T17:49:19;11.80;68.40
49132;DHT22;35149;51.196;6.204;2022-11-22T17:51:46;11.80;68.50
49132;DHT22;35149;51.196;6.204;2022-11-22T17:54:13;11.80;68.50
49132;DHT22;35149;51.196;6.204;2022-11-22T17:56:39;11.80;68.50
49132;DHT22;35149;51.196;6.204;2022-11-22T17:59:07;11.90;68.60
49132;DHT22;35149;51.196;6.204;2022-11-22T18:01:33;11.90;68.60
49132;DHT22;35149;51.196;6.204;2022-11-22T18:04:04;11.80;68.60
49132;DHT22;35149;51.196;6.204;2022-11-22T18:06:31;11.90;68.70
49132;DHT22;35149;51.196;6.204;2022-11-22T18:09:00;11.90;68.70
49132;DHT22;35149;51.196;6.204;2022-11-22T18:11:29;11.90;68.70
49132;DHT22;35149;51.196;6.204;2022-11-22T18:13:55;11.90;68.70
49132;DHT22;35149;51.196;6.204;2022-11-22T18:16:29;11.80;68.60
49132;DHT22;35149;51.196;6.204;2022-11-22T18:18:56;11.90;68.60